Time;durP1;ratioP1;P1;durP2;ratioP2;P2;SDS_P1;SDS_P2;PMS_P1;PMS_P2;Temp;Humidity;BMP_temperature;BMP_pressure;BME280_temperature;BME280_humidity;BME280_pressure;Samples;Min_cycle;Max_cycle;Signal;HPM_P1;HPM_P2
2022/05/18 00:00:28;;;;;;;8.02;5.00;;;17.70;99.90;;;;;;5012029;28;20057;-77
2022/05/18 00:02:55;;;;;;;11.67;5.90;;;17.70;99.90;;;;;;5013278;28;20107;-76
2022/05/18 00:05:22;;;;;;;9.00;5.10;;;17.70;99.90;;;;;;5014009;28;20054;-77
2022/05/18 00:07:49;;;;;;;10.60;5.60;;;17.60;99.90;;;;;;5012957;28;20101;-77
2022/05/18 00:10:17;;;;;;;8.63;4.80;;;17.50;99.90;;;;;;5012769;28;20104;-77
2022/05/18 00:12:46;;;;;;;9.48;5.18;;;17.50;99.90;;;;;;5013864;28;20081;-77
2022/05/18 00:15:15;;;;;;;8.82;5.32;;;17.50;99.90;;;;;;5012719;28;20049;-77
2022/05/18 00:17:42;;;;;;;10.00;5.18;;;17.50;99.90;;;;;;5012005;28;20081;-77
2022/05/18 00:20:11;;;;;;;9.32;5.10;;;17.40;99.90;;;;;;5012377;28;20049;-78
2022/05/18 00:22:44;;;;;;;9.48;5.80;;;17.30;99.90;;;;;;5013159;28;20138;-78
2022/05/18 00:25:12;;;;;;;7.22;4.90;;;17.30;99.90;;;;;;5013633;28;20461;-77
2022/05/18 00:27:39;;;;;;;9.40;5.50;;;17.30;99.90;;;;;;5011658;28;20054;-77
2022/05/18 00:30:09;;;;;;;6.78;5.25;;;17.20;99.90;;;;;;5025031;28;20127;-77
2022/05/18 00:32:36;;;;;;;9.23;5.90;;;17.20;99.90;;;;;;5033612;28;20049;-77
2022/05/18 00:35:05;;;;;;;8.90;6.25;;;17.20;99.90;;;;;;5032757;28;20131;-77
2022/05/18 00:37:31;;;;;;;9.73;5.40;;;17.20;99.90;;;;;;5015379;28;20079;-77
2022/05/18 00:39:58;;;;;;;9.27;5.95;;;17.10;99.90;;;;;;5033647;28;20049;-77
2022/05/18 00:42:28;;;;;;;9.70;5.63;;;17.10;99.90;;;;;;5015318;28;20049;-77
2022/05/18 00:44:55;;;;;;;7.82;5.95;;;17.10;99.90;;;;;;5033872;28;20092;-77
2022/05/18 00:47:24;;;;;;;11.75;5.93;;;17.00;99.90;;;;;;5032596;28;20541;-77
2022/05/18 00:49:54;;;;;;;7.50;5.47;;;17.10;99.90;;;;;;5032122;28;20095;-77
2022/05/18 00:52:32;;;;;;;8.38;5.50;;;17.00;99.90;;;;;;5016137;28;20089;-76
2022/05/18 00:55:01;;;;;;;10.55;5.63;;;17.00;99.90;;;;;;5015115;28;20136;-76
2022/05/18 00:57:33;;;;;;;10.73;5.60;;;17.00;99.90;;;;;;5014251;28;20081;-76
2022/05/18 01:00:05;;;;;;;8.75;5.32;;;16.90;99.90;;;;;;5034094;28;20054;-77
2022/05/18 01:02:36;;;;;;;12.57;6.53;;;16.90;99.90;;;;;;5036599;28;20056;-77
2022/05/18 01:05:06;;;;;;;8.13;5.10;;;16.90;99.90;;;;;;5035150;28;20088;-77
2022/05/18 01:07:37;;;;;;;9.77;5.28;;;16.90;99.90;;;;;;5015688;28;20136;-77
2022/05/18 01:10:06;;;;;;;11.07;6.85;;;16.90;99.90;;;;;;5014810;28;20472;-77
2022/05/18 01:12:33;;;;;;;8.05;5.20;;;16.80;99.90;;;;;;5014620;28;20116;-77
2022/05/18 01:15:03;;;;;;;8.98;5.65;;;16.80;99.90;;;;;;5015057;28;20136;-77
2022/05/18 01:17:35;;;;;;;9.07;5.97;;;16.70;99.90;;;;;;5014244;28;20081;-77
2022/05/18 01:20:05;;;;;;;13.07;6.25;;;16.70;99.90;;;;;;5032715;28;20523;-76
2022/05/18 01:22:41;;;;;;;7.80;5.63;;;16.70;99.90;;;;;;5015008;28;20161;-77
2022/05/18 01:25:18;;;;;;;7.78;5.15;;;16.70;99.90;;;;;;5031237;28;20132;-77
2022/05/18 01:27:46;;;;;;;8.65;5.63;;;16.70;99.90;;;;;;5032748;28;20104;-76
2022/05/18 01:30:14;;;;;;;8.38;5.53;;;16.70;99.90;;;;;;5014347;28;20057;-77
2022/05/18 01:32:43;;;;;;;11.18;5.82;;;16.60;99.90;;;;;;5032103;28;20417;-77
2022/05/18 01:35:12;;;;;;;16.00;5.55;;;16.60;99.90;;;;;;5015094;28;20140;-77
2022/05/18 01:37:39;;;;;;;9.85;5.10;;;16.60;99.90;;;;;;5031971;28;20137;-77
2022/05/18 01:40:12;;;;;;;9.70;6.05;;;16.60;99.90;;;;;;5031738;28;20133;-77
2022/05/18 01:42:46;;;;;;;9.25;5.82;;;16.50;99.90;;;;;;5032660;28;20448;-76
2022/05/18 01:45:14;;;;;;;9.95;5.47;;;16.60;99.90;;;;;;5014612;28;20089;-77
2022/05/18 01:47:42;;;;;;;9.93;5.72;;;16.50;99.90;;;;;;5014620;28;20446;-77
2022/05/18 01:50:12;;;;;;;8.48;6.03;;;16.50;99.90;;;;;;5033296;28;20053;-78
2022/05/18 01:52:40;;;;;;;10.23;5.13;;;16.40;99.90;;;;;;5035032;28;20085;-76
2022/05/18 01:55:08;;;;;;;9.35;5.55;;;16.40;99.90;;;;;;5018274;28;20152;-77
2022/05/18 01:57:36;;;;;;;10.00;5.40;;;16.40;99.90;;;;;;5016358;28;20505;-77
2022/05/18 02:00:05;;;;;;;7.38;5.45;;;16.40;99.90;;;;;;5034969;28;20124;-78
2022/05/18 02:02:34;;;;;;;10.32;6.05;;;16.40;99.90;;;;;;5018494;28;20086;-77
2022/05/18 02:05:01;;;;;;;7.88;5.90;;;16.40;99.90;;;;;;5018294;28;20068;-77
2022/05/18 02:07:28;;;;;;;10.25;6.13;;;16.30;99.90;;;;;;5017833;28;20162;-77
2022/05/18 02:09:54;;;;;;;9.10;6.20;;;16.30;99.90;;;;;;5035733;28;20085;-78
2022/05/18 02:12:21;;;;;;;9.65;6.05;;;16.30;99.90;;;;;;5017461;28;20493;-78
2022/05/18 02:14:48;;;;;;;9.05;5.53;;;16.40;99.90;;;;;;5035175;28;20089;-77
2022/05/18 02:17:15;;;;;;;11.13;5.97;;;16.30;99.90;;;;;;5018202;28;20081;-78
2022/05/18 02:19:43;;;;;;;11.82;5.38;;;16.40;99.90;;;;;;5035309;28;20050;-78
2022/05/18 02:22:10;;;;;;;9.57;5.40;;;16.40;99.90;;;;;;5017665;28;20085;-77
2022/05/18 02:24:37;;;;;;;9.10;5.57;;;16.40;99.90;;;;;;5035014;28;20232;-78
2022/05/18 02:27:04;;;;;;;8.45;5.35;;;16.30;99.90;;;;;;5018097;28;20440;-76
2022/05/18 02:29:31;;;;;;;12.68;6.00;;;16.30;99.90;;;;;;5034619;28;20136;-77
2022/05/18 02:31:58;;;;;;;6.85;5.53;;;16.30;99.90;;;;;;5035672;28;20056;-77
2022/05/18 02:34:25;;;;;;;9.68;5.78;;;16.30;99.90;;;;;;5035159;28;20092;-77
2022/05/18 02:36:53;;;;;;;9.30;5.65;;;16.30;99.90;;;;;;5034808;28;20115;-77
2022/05/18 02:39:21;;;;;;;9.32;5.30;;;16.30;99.90;;;;;;5017765;28;20131;-77
2022/05/18 02:41:48;;;;;;;9.98;5.85;;;16.30;99.90;;;;;;5017038;28;20412;-78
2022/05/18 02:44:16;;;;;;;10.10;6.00;;;16.20;99.90;;;;;;5017611;28;20147;-78
2022/05/18 02:46:43;;;;;;;10.85;6.35;;;16.20;99.90;;;;;;5017640;28;20089;-76
2022/05/18 02:49:10;;;;;;;8.25;5.13;;;16.20;99.90;;;;;;5016801;28;20384;-77
2022/05/18 02:51:38;;;;;;;10.00;5.57;;;16.20;99.90;;;;;;5035395;28;20055;-77
2022/05/18 02:56:05;;;;;;;12.02;6.65;;;16.20;99.90;;;;;;5017630;28;20053;-78
2022/05/18 02:56:54;;;;;;;9.75;5.90;;;16.20;99.90;;;;;;5016506;28;20559;-77
2022/05/18 02:59:21;;;;;;;10.20;5.65;;;16.20;99.90;;;;;;5035204;28;20049;-77
2022/05/18 03:01:48;;;;;;;12.13;6.35;;;16.10;99.90;;;;;;5016229;28;20088;-77
2022/05/18 03:04:15;;;;;;;7.78;5.78;;;16.10;99.90;;;;;;5034136;28;20501;-78
2022/05/18 03:06:42;;;;;;;9.38;5.57;;;16.10;99.90;;;;;;5016799;28;20141;-77
2022/05/18 03:09:10;;;;;;;12.10;5.95;;;16.10;99.90;;;;;;5034552;28;20111;-77
2022/05/18 03:11:38;;;;;;;8.15;5.30;;;16.10;99.90;;;;;;5016346;28;20085;-76
2022/05/18 03:14:04;;;;;;;8.75;5.65;;;16.10;99.90;;;;;;5039679;28;20076;-77
2022/05/18 03:16:32;;;;;;;12.32;6.13;;;16.20;99.90;;;;;;5022331;28;20054;-77
2022/05/18 03:18:59;;;;;;;8.90;5.72;;;16.10;99.90;;;;;;5021113;28;20128;-76
2022/05/18 03:24:11;;;;;;;10.52;6.00;;;16.10;99.90;;;;;;5015861;28;20049;-76
2022/05/18 03:26:38;;;;;;;8.07;5.88;;;16.00;99.90;;;;;;5016085;28;20080;-76
2022/05/18 03:29:05;;;;;;;8.95;5.85;;;16.00;99.90;;;;;;5033926;28;20061;-77
2022/05/18 03:31:32;;;;;;;10.00;6.15;;;16.00;99.90;;;;;;5033148;28;20058;-77
2022/05/18 03:33:59;;;;;;;8.45;5.55;;;15.90;99.90;;;;;;5033726;28;20054;-77
2022/05/18 03:36:27;;;;;;;12.85;5.78;;;15.90;99.90;;;;;;5034567;28;20449;-75
2022/05/18 03:38:55;;;;;;;11.15;5.93;;;15.90;99.90;;;;;;5023336;28;20501;-76
2022/05/18 03:41:24;;;;;;;9.60;5.88;;;15.90;99.90;;;;;;5014444;28;20055;-77
2022/05/18 03:43:51;;;;;;;11.60;6.32;;;15.90;99.90;;;;;;5009729;28;20124;-77
2022/05/18 03:46:17;;;;;;;12.52;6.65;;;15.90;99.90;;;;;;5027124;28;20091;-77
2022/05/18 03:48:45;;;;;;;12.25;6.45;;;15.90;99.90;;;;;;5027388;28;20042;-75
2022/05/18 03:51:14;;;;;;;14.20;6.80;;;15.90;99.90;;;;;;5024909;28;20518;-77
2022/05/18 03:53:41;;;;;;;14.50;7.05;;;15.90;99.90;;;;;;5011792;28;20546;-76
2022/05/18 03:56:08;;;;;;;9.75;5.95;;;15.80;99.90;;;;;;5009261;28;20129;-76
2022/05/18 03:58:36;;;;;;;9.32;5.82;;;15.90;99.90;;;;;;5008673;28;20049;-76
2022/05/18 04:01:08;;;;;;;7.97;5.82;;;15.90;99.90;;;;;;5024127;28;20489;-76
2022/05/18 04:03:36;;;;;;;9.05;6.20;;;15.90;99.90;;;;;;5005756;28;20057;-76
2022/05/18 04:06:03;;;;;;;10.98;6.38;;;15.90;99.90;;;;;;5008130;28;20049;-76
2022/05/18 04:08:30;;;;;;;9.23;5.78;;;15.80;99.90;;;;;;5010320;28;20045;-76
2022/05/18 04:10:56;;;;;;;9.88;6.15;;;15.80;99.90;;;;;;5024479;28;20132;-76
2022/05/18 04:13:25;;;;;;;9.80;6.32;;;15.90;99.90;;;;;;5008115;28;20049;-76
2022/05/18 04:15:55;;;;;;;7.30;5.63;;;15.90;99.90;;;;;;5023826;28;20417;-76
2022/05/18 04:18:23;;;;;;;10.10;6.18;;;15.90;99.90;;;;;;5024634;28;20073;-76
2022/05/18 04:20:50;;;;;;;7.75;5.60;;;15.90;99.90;;;;;;5024942;28;20053;-77
2022/05/18 04:23:17;;;;;;;9.43;6.60;;;15.90;99.90;;;;;;5005542;28;20129;-76
2022/05/18 04:25:44;;;;;;;11.02;6.30;;;15.90;99.90;;;;;;5005986;28;20132;-76
2022/05/18 04:28:13;;;;;;;10.88;6.63;;;15.90;99.90;;;;;;5007829;28;20077;-76
2022/05/18 04:30:42;;;;;;;11.48;6.65;;;15.90;99.90;;;;;;5007620;28;20056;-77
2022/05/18 04:33:11;;;;;;;9.27;6.32;;;15.90;99.90;;;;;;5005262;28;20061;-77
2022/05/18 04:35:38;;;;;;;9.23;5.88;;;16.00;99.90;;;;;;4989758;28;20053;-76
2022/05/18 04:38:06;;;;;;;11.60;6.53;;;16.10;99.90;;;;;;5005704;28;20155;-77
2022/05/18 04:40:33;;;;;;;12.43;5.95;;;16.10;99.90;;;;;;5011819;28;20050;-76
2022/05/18 04:43:00;;;;;;;8.88;6.15;;;16.10;99.90;;;;;;5009275;28;20549;-76
2022/05/18 04:45:27;;;;;;;10.02;5.90;;;16.10;99.90;;;;;;4994891;28;20108;-76
2022/05/18 04:47:53;;;;;;;9.50;5.93;;;16.20;99.90;;;;;;4974806;28;20515;-76
2022/05/18 04:50:22;;;;;;;11.15;6.18;;;16.10;99.90;;;;;;4991228;28;20096;-77
2022/05/18 04:52:49;;;;;;;12.40;6.63;;;16.20;99.90;;;;;;4976814;28;20054;-77
2022/05/18 04:55:16;;;;;;;12.93;6.57;;;16.30;99.90;;;;;;5006185;28;20050;-75
2022/05/18 04:57:43;;;;;;;13.85;6.88;;;16.30;99.90;;;;;;5008247;28;20051;-77
2022/05/18 05:00:13;;;;;;;11.95;6.15;;;16.40;99.90;;;;;;5001284;28;20081;-76
2022/05/18 05:02:41;;;;;;;18.37;6.97;;;16.50;99.90;;;;;;5004662;28;20062;-76
2022/05/18 05:05:10;;;;;;;9.70;6.03;;;16.50;99.90;;;;;;5020918;28;20025;-76
2022/05/18 05:07:38;;;;;;;10.80;6.18;;;16.70;99.90;;;;;;5010820;28;20535;-76
2022/05/18 05:10:07;;;;;;;8.45;5.57;;;16.70;99.90;;;;;;4988131;28;20591;-76
2022/05/18 05:12:34;;;;;;;9.57;5.82;;;16.90;99.90;;;;;;4988050;28;20050;-77
2022/05/18 05:15:02;;;;;;;11.13;6.35;;;17.00;99.90;;;;;;5006361;28;20077;-75
2022/05/18 05:17:30;;;;;;;9.45;6.10;;;17.20;99.90;;;;;;5010804;28;20061;-76
2022/05/18 05:19:57;;;;;;;10.15;6.75;;;17.20;99.90;;;;;;4989504;28;20056;-76
2022/05/18 05:22:24;;;;;;;12.32;6.75;;;17.30;99.90;;;;;;4999220;28;20495;-76
2022/05/18 05:24:52;;;;;;;9.00;6.55;;;17.30;99.90;;;;;;4992759;28;20134;-76
2022/05/18 05:27:19;;;;;;;9.23;5.60;;;17.50;99.90;;;;;;4997876;28;20114;-75
2022/05/18 05:29:46;;;;;;;9.73;6.32;;;17.60;99.90;;;;;;4993789;28;20093;-76
2022/05/18 05:32:13;;;;;;;8.10;6.25;;;17.80;99.90;;;;;;4999906;28;20121;-76
2022/05/18 05:34:40;;;;;;;7.55;6.03;;;18.00;99.90;;;;;;4998220;28;20113;-76
2022/05/18 05:37:07;;;;;;;11.10;5.63;;;18.20;99.90;;;;;;5001973;28;20065;-75
2022/05/18 05:39:34;;;;;;;11.52;6.78;;;18.30;99.90;;;;;;5003829;28;20138;-76
2022/05/18 05:42:02;;;;;;;9.38;6.20;;;18.40;99.90;;;;;;5010181;28;20541;-76
2022/05/18 05:44:29;;;;;;;9.65;6.82;;;18.50;99.90;;;;;;4995470;28;20124;-77
2022/05/18 05:46:56;;;;;;;12.20;6.57;;;18.60;99.90;;;;;;4998897;28;20093;-76
2022/05/18 05:49:23;;;;;;;10.32;7.43;;;18.70;99.90;;;;;;5009852;28;20155;-77
2022/05/18 05:51:50;;;;;;;12.85;6.90;;;18.80;99.90;;;;;;4997941;28;20078;-76
2022/05/18 05:54:17;;;;;;;10.20;6.45;;;18.90;99.90;;;;;;4997838;28;20093;-75
2022/05/18 05:56:44;;;;;;;9.43;6.57;;;19.00;99.90;;;;;;5009108;28;20137;-76
2022/05/18 05:59:13;;;;;;;11.48;7.32;;;19.10;99.90;;;;;;4999893;28;20050;-75
2022/05/18 06:01:40;;;;;;;9.70;7.03;;;19.20;99.90;;;;;;5003789;28;20049;-77
2022/05/18 06:04:07;;;;;;;12.52;6.40;;;19.20;99.90;;;;;;5009533;28;20490;-77
2022/05/18 06:06:37;;;;;;;11.25;6.22;;;19.30;99.90;;;;;;5015458;28;20056;-77
2022/05/18 06:09:07;;;;;;;11.68;7.38;;;19.40;99.90;;;;;;5015065;28;20070;-78
2022/05/18 06:11:34;;;;;;;8.27;6.65;;;19.50;99.90;;;;;;5013839;28;20069;-78
2022/05/18 06:14:01;;;;;;;10.85;7.22;;;19.70;99.90;;;;;;5015103;28;20111;-78
2022/05/18 06:16:30;;;;;;;8.82;6.60;;;19.80;99.90;;;;;;5015078;28;20061;-77
2022/05/18 06:18:59;;;;;;;10.23;6.90;;;19.90;99.90;;;;;;5015671;28;20085;-77
2022/05/18 06:21:26;;;;;;;11.77;7.65;;;20.10;99.90;;;;;;5014363;28;20123;-78
2022/05/18 06:23:53;;;;;;;10.35;6.90;;;20.20;99.90;;;;;;5014060;28;20133;-78
2022/05/18 06:26:20;;;;;;;9.00;6.85;;;20.30;99.90;;;;;;5014152;28;20104;-79
2022/05/18 06:28:47;;;;;;;11.00;7.55;;;20.50;99.90;;;;;;5014064;28;20428;-78
2022/05/18 06:31:14;;;;;;;11.88;7.22;;;20.70;99.90;;;;;;4997381;28;20058;-78
2022/05/18 06:33:42;;;;;;;10.05;7.88;;;20.80;99.90;;;;;;4997320;28;20065;-77
2022/05/18 06:36:09;;;;;;;11.98;8.27;;;21.00;99.90;;;;;;4997451;28;20133;-77
2022/05/18 06:38:36;;;;;;;11.88;7.72;;;21.20;99.90;;;;;;4997687;28;20046;-77
2022/05/18 06:43:47;;;;;;;12.10;7.28;;;21.80;99.90;;;;;;4998001;28;20494;-77
2022/05/18 06:46:14;;;;;;;8.68;6.78;;;22.30;99.90;;;;;;5016055;28;20053;-79
2022/05/18 06:48:43;;;;;;;15.15;7.53;;;22.50;99.90;;;;;;4998620;28;20128;-77
2022/05/18 06:51:10;;;;;;;10.32;7.75;;;22.90;99.90;;;;;;4997942;28;20144;-77
2022/05/18 06:53:38;;;;;;;9.50;7.45;;;23.30;99.90;;;;;;4997047;28;20173;-78
2022/05/18 06:56:06;;;;;;;10.80;7.43;;;23.50;99.90;;;;;;4997221;28;20137;-78
2022/05/18 06:58:32;;;;;;;8.57;6.95;;;23.80;99.90;;;;;;5015109;28;20148;-78
2022/05/18 07:01:01;;;;;;;10.98;7.57;;;24.20;99.90;;;;;;5015073;28;20476;-77
2022/05/18 07:03:28;;;;;;;10.55;8.40;;;24.50;99.90;;;;;;5014358;28;20165;-77
2022/05/18 07:05:56;;;;;;;10.70;7.15;;;24.90;99.90;;;;;;4997527;28;20085;-78
2022/05/18 07:08:23;;;;;;;11.75;7.50;;;25.30;99.90;;;;;;4997159;28;20077;-78
2022/05/18 07:10:49;;;;;;;12.55;8.18;;;25.60;99.90;;;;;;4996137;28;20144;-78
2022/05/18 07:13:17;;;;;;;10.10;7.90;;;25.70;99.90;;;;;;4996842;28;20144;-78
2022/05/18 07:15:45;;;;;;;9.93;7.88;;;25.80;99.90;;;;;;4997164;28;20401;-78
2022/05/18 07:18:12;;;;;;;10.48;7.63;;;26.00;99.90;;;;;;4996335;28;20080;-78
2022/05/18 07:20:39;;;;;;;11.35;8.10;;;26.30;99.90;;;;;;4997426;28;20057;-78
2022/05/18 07:23:07;;;;;;;12.65;6.95;;;26.50;99.90;;;;;;5014541;28;20148;-78
2022/05/18 07:25:35;;;;;;;11.10;7.60;;;26.60;99.90;;;;;;4996278;28;20141;-78
2022/05/18 07:28:02;;;;;;;8.13;7.20;;;26.80;99.90;;;;;;4997026;28;20045;-78
2022/05/18 07:30:29;;;;;;;11.25;7.28;;;26.80;99.90;;;;;;5028744;28;20140;-78
2022/05/18 07:32:55;;;;;;;13.73;7.65;;;27.00;99.90;;;;;;5016262;28;20172;-78
2022/05/18 07:35:23;;;;;;;12.32;7.78;;;27.50;99.90;;;;;;5033976;28;20473;-78
2022/05/18 07:37:50;;;;;;;12.02;6.95;;;27.80;99.70;;;;;;5016112;28;20512;-79
2022/05/18 07:40:18;;;;;;;10.23;6.78;;;28.00;99.10;;;;;;5034619;28;20080;-78
2022/05/18 07:42:45;;;;;;;14.60;7.93;;;28.30;98.40;;;;;;5033915;28;20105;-79
2022/05/18 07:45:12;;;;;;;9.07;7.60;;;28.40;97.80;;;;;;5033000;28;20085;-79
2022/05/18 07:47:38;;;;;;;10.80;7.60;;;28.60;97.10;;;;;;5016032;28;20140;-78
2022/05/18 07:50:06;;;;;;;9.88;7.65;;;28.80;96.50;;;;;;5033462;28;20053;-77
2022/05/18 07:52:37;;;;;;;11.80;7.47;;;29.20;96.10;;;;;;5033138;28;20054;-78
2022/05/18 07:55:04;;;;;;;11.55;7.18;;;29.30;95.10;;;;;;5016182;28;20081;-78
2022/05/18 07:57:32;;;;;;;10.18;7.20;;;29.10;94.00;;;;;;5033804;28;20084;-78
2022/05/18 07:59:59;;;;;;;11.80;7.43;;;28.90;94.10;;;;;;5032911;28;20136;-78
2022/05/18 08:02:29;;;;;;;11.93;6.90;;;29.10;94.00;;;;;;5016150;28;20045;-78
2022/05/18 08:04:55;;;;;;;9.27;6.88;;;29.30;93.60;;;;;;5015712;28;20134;-78
2022/05/18 08:07:22;;;;;;;10.55;5.50;;;29.60;92.90;;;;;;5015517;28;20092;-79
2022/05/18 08:15:20;;;;;;;10.02;4.50;;;30.90;89.40;;;;;;5016095;28;20049;-79
2022/05/18 08:17:48;;;;;;;7.22;4.70;;;31.40;87.30;;;;;;5034986;28;20076;-79
2022/05/18 08:20:17;;;;;;;8.73;4.28;;;31.80;85.60;;;;;;5018388;28;20041;-80
2022/05/18 08:22:45;;;;;;;9.57;4.32;;;31.90;83.30;;;;;;5037976;28;20488;-79
2022/05/18 08:25:13;;;;;;;4.90;3.25;;;32.10;81.70;;;;;;5023736;28;20058;-79
2022/05/18 08:27:42;;;;;;;5.60;2.93;;;32.10;79.20;;;;;;5017444;28;20053;-78
2022/05/18 08:30:11;;;;;;;5.35;3.15;;;32.30;78.30;;;;;;5014057;28;20126;-79
2022/05/18 08:32:38;;;;;;;8.48;2.90;;;32.40;75.70;;;;;;5000936;28;20092;-77
2022/05/18 08:35:05;;;;;;;5.20;2.92;;;32.40;74.40;;;;;;5002805;28;20532;-77
2022/05/18 08:37:38;;;;;;;6.90;3.47;;;32.60;73.10;;;;;;5004379;28;20454;-78
2022/05/18 08:40:07;;;;;;;5.53;3.25;;;32.60;72.20;;;;;;5033211;28;20049;-79
2022/05/18 08:42:35;;;;;;;10.35;2.97;;;32.60;73.40;;;;;;5015091;28;20132;-79
2022/05/18 08:45:04;;;;;;;6.30;3.00;;;32.60;72.20;;;;;;5015296;28;20057;-78
2022/05/18 08:47:40;;;;;;;5.38;2.67;;;32.80;70.40;;;;;;5032212;28;20416;-79
2022/05/18 08:50:11;;;;;;;6.50;2.97;;;32.60;69.40;;;;;;5015580;28;20088;-80
2022/05/18 08:52:53;;;;;;;7.47;2.85;;;32.90;70.10;;;;;;5033153;28;20049;-80
2022/05/18 08:55:42;;;;;;;4.20;3.05;;;33.10;68.90;;;;;;5032603;28;20084;-80
2022/05/18 08:58:15;;;;;;;5.32;3.33;;;33.30;69.20;;;;;;5032930;28;20096;-79
2022/05/18 09:00:45;;;;;;;8.15;3.50;;;33.40;69.10;;;;;;5017576;28;20448;-79
2022/05/18 09:03:18;;;;;;;7.68;4.18;;;33.60;68.60;;;;;;5037605;28;20129;-79
2022/05/18 09:05:55;;;;;;;5.30;2.90;;;33.90;68.30;;;;;;5019371;28;20394;-80
2022/05/18 09:08:25;;;;;;;5.88;3.13;;;33.90;67.40;;;;;;5019362;28;20083;-80
2022/05/18 09:11:01;;;;;;;6.05;3.00;;;34.20;67.40;;;;;;5015047;28;20092;-79
2022/05/18 09:13:29;;;;;;;6.68;3.00;;;34.40;65.70;;;;;;4999765;28;20153;-79
2022/05/18 09:16:10;;;;;;;11.93;2.97;;;34.10;65.90;;;;;;5008681;28;20076;-79
2022/05/18 09:18:43;;;;;;;5.95;3.33;;;34.30;64.90;;;;;;5019255;28;20072;-80
2022/05/18 09:21:23;;;;;;;4.82;2.90;;;34.20;64.40;;;;;;5037055;28;20077;-79
2022/05/18 09:24:03;;;;;;;5.60;3.50;;;34.20;63.50;;;;;;5019614;28;20045;-80
2022/05/18 09:26:47;;;;;;;6.15;3.42;;;34.20;63.70;;;;;;5019699;28;20449;-79
2022/05/18 09:29:24;;;;;;;7.57;3.95;;;34.20;63.70;;;;;;5019584;28;20057;-80
2022/05/18 09:32:10;;;;;;;7.05;4.00;;;34.20;64.30;;;;;;5018748;28;20069;-80
2022/05/18 09:34:50;;;;;;;10.00;3.95;;;34.20;63.20;;;;;;5018492;28;20132;-78
2022/05/18 09:37:32;;;;;;;9.88;4.35;;;34.30;65.00;;;;;;5035898;28;20128;-79
2022/05/18 09:40:06;;;;;;;8.93;3.78;;;34.60;64.10;;;;;;5018626;28;20132;-79
2022/05/18 09:42:38;;;;;;;5.68;4.13;;;35.10;64.20;;;;;;5018550;28;20084;-80
2022/05/18 09:45:09;;;;;;;9.05;4.43;;;35.00;63.70;;;;;;5035597;28;20059;-79
2022/05/18 09:47:42;;;;;;;6.20;4.13;;;35.10;63.40;;;;;;5036332;28;20045;-80
2022/05/18 09:50:10;;;;;;;7.53;4.03;;;35.00;63.30;;;;;;5036449;28;20438;-80
2022/05/18 09:52:39;;;;;;;6.85;4.07;;;35.20;63.60;;;;;;5036072;28;20119;-79
2022/05/18 09:55:09;;;;;;;7.20;4.10;;;35.70;62.60;;;;;;5018240;28;20141;-79
2022/05/18 09:57:41;;;;;;;6.07;3.85;;;35.90;62.00;;;;;;5018518;28;20057;-80
2022/05/18 10:00:11;;;;;;;7.47;3.20;;;36.20;61.40;;;;;;5035797;28;20088;-79
2022/05/18 10:08:12;;;;;;;7.95;3.50;;;36.00;60.90;;;;;;5019158;28;20382;-80
2022/05/18 10:10:40;;;;;;;8.60;5.53;;;36.00;60.80;;;;;;5036531;28;20049;-80
2022/05/18 10:13:11;;;;;;;7.78;3.85;;;36.00;60.40;;;;;;5018705;28;20350;-79
2022/05/18 10:15:41;;;;;;;6.40;4.90;;;35.90;60.90;;;;;;5035687;28;20077;-79
2022/05/18 10:18:18;;;;;;;5.70;3.45;;;35.90;60.60;;;;;;5018283;28;20448;-78
2022/05/18 10:21:02;;;;;;;7.28;4.07;;;36.20;60.50;;;;;;5034935;28;20085;-80
2022/05/18 10:23:37;;;;;;;8.25;3.85;;;36.20;59.90;;;;;;5035833;28;20464;-80
2022/05/18 10:26:09;;;;;;;7.40;4.10;;;36.30;60.40;;;;;;5035568;28;20607;-80
2022/05/18 10:28:40;;;;;;;10.82;4.47;;;36.20;59.90;;;;;;5017578;28;20489;-79
2022/05/18 10:31:15;;;;;;;7.75;5.43;;;36.10;60.40;;;;;;5019016;28;20054;-79
2022/05/18 10:33:43;;;;;;;10.02;5.25;;;35.90;60.10;;;;;;5035137;28;20107;-80
2022/05/18 10:36:12;;;;;;;9.48;4.50;;;35.90;61.20;;;;;;5015610;28;20128;-80
2022/05/18 10:38:48;;;;;;;;;;;35.90;61.80;;;;;;5015652;28;20541;-79
2022/05/18 10:41:18;;;;;;;11.10;5.47;;;35.90;61.30;;;;;;5001389;28;19944;-78
2022/05/18 10:43:58;;;;;;;9.27;6.45;;;36.20;61.80;;;;;;5035347;28;20133;-79
2022/05/18 10:46:31;;;;;;;8.68;4.95;;;36.50;61.40;;;;;;5017949;28;20567;-80
2022/05/18 10:49:02;;;;;;;10.43;7.05;;;36.70;60.90;;;;;;5035921;28;20381;-80
2022/05/18 10:51:32;;;;;;;10.32;6.55;;;36.60;61.00;;;;;;5017497;28;20046;-79
2022/05/18 10:54:10;;;;;;;9.32;6.88;;;36.80;61.00;;;;;;5034628;28;20096;-79
2022/05/18 10:56:38;;;;;;;9.95;6.38;;;36.60;59.70;;;;;;5034727;28;20088;-79
2022/05/18 10:59:22;;;;;;;11.35;7.63;;;36.50;60.80;;;;;;5034411;28;20056;-79
2022/05/18 11:01:55;;;;;;;10.15;6.90;;;36.30;60.50;;;;;;5016776;28;20088;-80
2022/05/18 11:04:32;;;;;;;10.80;5.88;;;36.30;61.30;;;;;;5034864;28;20053;-79
2022/05/18 11:06:58;;;;;;;9.82;6.53;;;36.50;60.70;;;;;;5034653;28;20589;-79
2022/05/18 11:09:30;;;;;;;9.00;7.13;;;36.60;61.00;;;;;;5016461;28;20088;-79
2022/05/18 11:12:01;;;;;;;8.55;7.70;;;36.70;60.80;;;;;;5034332;28;20125;-80
2022/05/18 11:14:38;;;;;;;8.63;6.65;;;36.60;60.50;;;;;;5016314;28;20088;-80
2022/05/18 11:17:21;;;;;;;9.55;6.03;;;36.90;60.30;;;;;;5017138;28;20136;-79
2022/05/18 11:19:55;;;;;;;11.30;6.55;;;37.00;60.70;;;;;;5016217;28;20143;-79
2022/05/18 11:22:31;;;;;;;10.02;6.68;;;37.10;61.10;;;;;;5033499;28;20509;-80
2022/05/18 11:25:09;;;;;;;8.98;6.35;;;36.90;60.60;;;;;;5033723;28;20058;-80
2022/05/18 11:27:43;;;;;;;13.55;6.70;;;37.20;60.70;;;;;;5016617;28;20084;-78
2022/05/18 11:30:15;;;;;;;10.63;7.05;;;37.00;61.00;;;;;;5033775;28;20303;-80
2022/05/18 11:32:59;;;;;;;9.45;7.10;;;37.00;60.80;;;;;;5017309;28;20045;-81
2022/05/18 11:35:44;;;;;;;9.50;6.22;;;37.20;61.00;;;;;;5033910;28;20099;-80
2022/05/18 11:38:36;;;;;;;10.98;7.10;;;37.00;60.80;;;;;;5034033;28;20057;-80
2022/05/18 11:41:14;;;;;;;10.07;6.10;;;37.00;61.00;;;;;;5015654;28;20563;-80
2022/05/18 11:43:53;;;;;;;9.65;6.80;;;37.30;60.50;;;;;;5015834;28;20083;-78
2022/05/18 11:46:54;;;;;;;9.27;7.05;;;37.00;60.80;;;;;;5016351;28;20093;-79
2022/05/18 11:49:24;;;;;;;9.38;6.80;;;37.10;60.60;;;;;;5011321;28;20455;-80
2022/05/18 11:52:14;;;;;;;10.02;7.50;;;36.90;61.10;;;;;;5015953;28;20475;-80
2022/05/18 11:54:54;;;;;;;10.73;6.53;;;37.20;60.40;;;;;;5016363;28;20122;-80
2022/05/18 11:57:46;;;;;;;10.18;7.88;;;37.10;60.80;;;;;;5016139;28;20221;-81
2022/05/18 12:00:26;;;;;;;10.00;7.10;;;37.20;60.50;;;;;;5033947;28;20124;-79
2022/05/18 12:03:25;;;;;;;8.30;6.65;;;37.10;61.10;;;;;;5015826;28;20051;-80
2022/05/18 12:06:17;;;;;;;10.10;6.20;;;37.10;60.60;;;;;;5031801;28;20535;-80
2022/05/18 12:09:13;;;;;;;9.05;6.57;;;37.40;60.80;;;;;;5016502;28;20480;-80
2022/05/18 12:11:50;;;;;;;9.93;6.68;;;37.10;60.00;;;;;;5008820;28;20060;-80
2022/05/18 12:14:26;;;;;;;10.98;6.03;;;36.60;60.80;;;;;;5012584;28;20062;-80
2022/05/18 12:17:04;;;;;;;9.23;6.53;;;36.00;61.30;;;;;;5008120;28;20073;-80
2022/05/18 12:19:44;;;;;;;10.82;6.38;;;35.80;61.40;;;;;;5015228;28;20468;-81
2022/05/18 12:22:15;;;;;;;10.35;7.25;;;35.80;62.50;;;;;;4996042;28;20149;-81
2022/05/18 12:24:45;;;;;;;9.95;6.82;;;36.00;62.10;;;;;;5003037;28;20136;-80
2022/05/18 12:27:15;;;;;;;9.25;6.18;;;36.10;61.60;;;;;;5032467;28;20191;-80
2022/05/18 12:29:44;;;;;;;8.93;6.28;;;35.90;61.80;;;;;;5033414;28;20128;-79
2022/05/18 12:32:14;;;;;;;9.93;7.65;;;35.70;62.30;;;;;;5015129;28;20053;-80
2022/05/18 12:34:45;;;;;;;7.60;5.53;;;35.50;62.20;;;;;;5032121;28;20084;-80
2022/05/18 12:37:25;;;;;;;9.23;5.97;;;34.90;63.20;;;;;;5033097;28;20129;-80
2022/05/18 12:40:23;;;;;;;11.50;6.63;;;34.40;64.10;;;;;;5032831;28;20076;-80
2022/05/18 12:42:57;;;;;;;7.78;5.43;;;33.80;64.60;;;;;;5005983;28;20057;-79
2022/05/18 12:45:32;;;;;;;12.40;6.50;;;33.00;65.40;;;;;;5017722;28;20085;-79
2022/05/18 12:48:22;;;;;;;11.15;6.38;;;32.50;67.30;;;;;;5032673;28;20128;-80
2022/05/18 12:51:02;;;;;;;10.82;6.80;;;32.10;68.30;;;;;;5033025;28;20104;-80
2022/05/18 12:53:42;;;;;;;9.15;7.53;;;31.60;69.80;;;;;;5032045;28;20053;-79
2022/05/18 12:56:17;;;;;;;8.63;6.30;;;31.10;70.60;;;;;;5032366;28;20485;-79
2022/05/18 12:58:51;;;;;;;9.18;6.78;;;31.20;71.10;;;;;;5015077;28;20152;-81
2022/05/18 13:01:19;;;;;;;9.25;6.22;;;31.10;70.70;;;;;;5015435;28;20095;-80
2022/05/18 13:03:55;;;;;;;9.25;6.38;;;31.10;71.00;;;;;;5015823;28;20144;-79
2022/05/18 13:06:39;;;;;;;10.02;6.97;;;31.10;71.60;;;;;;5031783;28;20096;-79
2022/05/18 13:09:34;;;;;;;9.82;7.82;;;31.10;71.80;;;;;;5032226;28;20189;-80
2022/05/18 13:12:25;;;;;;;12.82;8.80;;;30.90;72.50;;;;;;5014550;28;20053;-78
2022/05/18 13:14:59;;;;;;;15.27;9.73;;;30.70;72.40;;;;;;5015288;28;20136;-78
2022/05/18 13:17:48;;;;;;;12.88;10.93;;;30.20;73.60;;;;;;5015225;28;20049;-80